createdAt,value
2023-02-23T00:02:22.686Z,27.70
2023-02-23T00:04:53.133Z,27.60
2023-02-23T00:07:21.912Z,27.70
2023-02-23T00:09:52.971Z,27.70
2023-02-23T00:12:24.015Z,27.90
2023-02-23T00:14:53.081Z,28.00
2023-02-23T00:17:24.450Z,28.00
2023-02-23T00:19:55.393Z,27.90
2023-02-23T00:22:27.078Z,27.90
2023-02-23T00:24:57.576Z,27.80
2023-02-23T00:27:26.551Z,27.90
2023-02-23T00:29:56.497Z,28.00
2023-02-23T00:32:25.375Z,28.10
2023-02-23T02:08:24.570Z,28.90
2023-02-23T02:10:57.659Z,29.00
2023-02-23T02:13:32.150Z,29.10
2023-02-23T02:16:33.185Z,29.10
2023-02-23T02:19:58.078Z,29.10
2023-02-23T02:23:13.169Z,29.20
2023-02-23T02:26:05.054Z,29.10
2023-02-23T02:29:28.812Z,29.20
2023-02-23T02:32:44.139Z,29.20
2023-02-23T02:36:06.083Z,29.20
2023-02-23T02:38:54.008Z,29.40
2023-02-23T02:41:37.026Z,29.40
2023-02-23T02:44:18.889Z,29.40
2023-02-23T02:46:59.357Z,29.40
2023-02-23T02:49:34.030Z,29.40
2023-02-23T02:52:13.585Z,29.40
2023-02-23T02:54:53.284Z,29.50
2023-02-23T02:57:28.229Z,29.40
2023-02-23T03:00:17.144Z,29.60
2023-02-23T03:03:04.780Z,29.70
2023-02-23T03:06:01.538Z,29.60
2023-02-23T03:09:03.462Z,29.60
2023-02-23T03:11:59.971Z,29.80
2023-02-23T03:14:58.891Z,29.90
2023-02-23T03:18:01.611Z,30.00
2023-02-23T03:21:01.577Z,30.60
2023-02-23T03:24:03.154Z,30.00
2023-02-23T03:26:59.897Z,30.10
2023-02-23T03:29:59.406Z,30.20
2023-02-23T03:32:54.205Z,30.20
2023-02-23T03:35:49.018Z,30.30
2023-02-23T03:38:41.142Z,30.40
2023-02-23T03:41:32.058Z,30.40
2023-02-23T03:44:28.583Z,30.50
2023-02-23T03:47:17.795Z,30.50
2023-02-23T03:50:08.844Z,30.60
2023-02-23T03:53:03.563Z,30.70
2023-02-23T03:55:55.379Z,30.70
2023-02-23T03:58:50.131Z,30.70
2023-02-23T04:01:41.476Z,30.80
2023-02-23T04:04:31.042Z,30.90
2023-02-23T04:07:22.397Z,30.90
2023-02-23T04:10:08.648Z,31.00
2023-02-23T04:13:07.961Z,31.80
2023-02-23T04:15:41.262Z,31.00
2023-02-23T04:18:17.619Z,31.20
2023-02-23T04:20:46.666Z,31.10
2023-02-23T04:23:15.791Z,31.30
2023-02-23T04:25:44.602Z,31.70
2023-02-23T04:28:13.714Z,31.30
2023-02-23T04:30:42.795Z,31.40
2023-02-23T04:33:13.479Z,31.50
2023-02-23T04:35:43.200Z,31.50
2023-02-23T04:38:12.289Z,31.70
2023-02-23T04:40:41.128Z,31.70
2023-02-23T04:43:13.455Z,31.70
2023-02-23T04:45:42.798Z,31.90
2023-02-23T04:48:13.280Z,31.90
2023-02-23T04:50:42.437Z,32.00
2023-02-23T04:53:11.543Z,32.00
2023-02-23T04:55:40.337Z,32.00
2023-02-23T04:58:13.787Z,32.20
2023-02-23T05:00:42.817Z,32.20
2023-02-23T05:03:13.321Z,32.30
2023-02-23T05:05:42.158Z,32.50
2023-02-23T05:08:11.725Z,32.60
2023-02-23T05:10:40.604Z,32.70
2023-02-23T05:13:09.808Z,32.70
2023-02-23T05:15:38.795Z,32.80
2023-02-23T05:18:08.388Z,32.80
2023-02-23T05:20:38.518Z,32.80
2023-02-23T05:23:07.619Z,33.10
2023-02-23T05:25:38.861Z,33.00
2023-02-23T05:28:08.253Z,33.10
2023-02-23T05:30:37.539Z,33.10
2023-02-23T05:33:06.621Z,33.10
2023-02-23T05:35:35.688Z,33.10
2023-02-23T05:38:06.127Z,33.10
2023-02-23T05:40:35.096Z,33.20
2023-02-23T05:43:04.109Z,33.10
2023-02-23T05:45:33.290Z,33.20
2023-02-23T05:48:02.551Z,33.30
2023-02-23T05:50:31.283Z,33.30
2023-02-23T05:53:00.363Z,33.40
2023-02-23T05:55:30.497Z,33.20
2023-02-23T05:57:59.557Z,33.30
2023-02-23T06:00:28.364Z,33.20
2023-02-23T06:02:57.493Z,33.10
2023-02-23T06:05:26.477Z,33.20
2023-02-23T06:07:55.650Z,33.10
2023-02-23T06:10:24.412Z,33.10
2023-02-23T06:12:54.861Z,33.10
2023-02-23T06:15:23.639Z,33.20
2023-02-23T06:17:53.674Z,33.20
2023-02-23T06:20:22.802Z,33.20
2023-02-23T06:22:51.904Z,33.10
2023-02-23T06:25:20.676Z,33.10
2023-02-23T06:27:49.738Z,33.20
2023-02-23T06:30:20.530Z,33.20
2023-02-23T06:32:49.613Z,33.10
2023-02-23T06:35:22.314Z,33.20
2023-02-23T06:37:51.383Z,33.10
2023-02-23T06:40:20.451Z,33.00
2023-02-23T06:42:49.485Z,33.10
2023-02-23T06:45:20.349Z,33.10
2023-02-23T06:47:49.705Z,33.20
2023-02-23T06:50:19.523Z,33.30
2023-02-23T06:52:49.449Z,33.10
2023-02-23T06:55:19.111Z,33.10
2023-02-23T06:57:51.571Z,33.00
2023-02-23T07:00:23.298Z,33.00
2023-02-23T07:02:52.460Z,32.90
2023-02-23T07:05:21.476Z,32.90
2023-02-23T07:07:50.687Z,33.00
2023-02-23T07:10:20.162Z,33.00
2023-02-23T07:12:49.268Z,32.80
2023-02-23T07:15:20.280Z,32.90
2023-02-23T07:17:52.827Z,32.90
2023-02-23T07:20:21.703Z,32.70
2023-02-23T07:22:50.956Z,32.80
2023-02-23T07:25:20.098Z,32.80
2023-02-23T07:27:49.288Z,32.80
2023-02-23T07:30:19.533Z,33.00
2023-02-23T07:32:49.971Z,32.90
2023-02-23T07:35:19.068Z,32.90
2023-02-23T07:37:48.163Z,33.00
2023-02-23T07:40:17.682Z,33.20
2023-02-23T07:42:46.820Z,33.00
2023-02-23T07:45:16.853Z,33.00
2023-02-23T07:47:46.466Z,33.00
2023-02-23T07:50:16.871Z,32.90
2023-02-23T07:52:46.414Z,32.70
2023-02-23T07:55:15.406Z,32.70
2023-02-23T07:57:44.592Z,32.40
2023-02-23T08:00:14.816Z,32.60
2023-02-23T08:02:45.455Z,32.80
2023-02-23T08:05:15.956Z,32.80
2023-02-23T08:07:45.741Z,32.40
2023-02-23T08:10:14.658Z,32.70
2023-02-23T08:12:43.886Z,32.50
2023-02-23T08:15:13.245Z,32.50
2023-02-23T08:17:43.759Z,32.30
2023-02-23T08:20:13.333Z,32.50
2023-02-23T08:22:49.736Z,32.50
2023-02-23T08:25:19.400Z,32.50
2023-02-23T08:27:52.073Z,32.50
2023-02-23T08:30:23.110Z,32.20
2023-02-23T08:32:52.474Z,32.40
2023-02-23T08:35:21.785Z,32.30
2023-02-23T08:37:52.238Z,32.70
2023-02-23T08:40:21.215Z,32.50
2023-02-23T08:42:52.103Z,32.40
2023-02-23T08:45:21.634Z,32.30
2023-02-23T08:47:50.724Z,32.00
2023-02-23T08:50:19.700Z,32.20
2023-02-23T08:52:48.931Z,32.00
2023-02-23T08:55:21.050Z,32.30
2023-02-23T08:57:50.133Z,32.30
2023-02-23T09:00:20.614Z,32.40
2023-02-23T09:02:49.809Z,32.40
2023-02-23T09:05:20.408Z,32.20
2023-02-23T09:07:49.652Z,32.20
2023-02-23T09:10:24.975Z,32.20
2023-02-23T09:12:54.358Z,32.10
2023-02-23T09:15:23.297Z,32.10
2023-02-23T09:17:52.404Z,31.90
2023-02-23T09:20:26.793Z,31.70
2023-02-23T09:22:56.133Z,32.00
2023-02-23T09:25:27.282Z,31.80
2023-02-23T09:27:59.626Z,31.80
2023-02-23T09:30:29.193Z,32.00
2023-02-23T09:32:58.367Z,32.00
2023-02-23T09:35:27.248Z,31.90
2023-02-23T09:37:57.458Z,31.90
2023-02-23T09:40:34.881Z,31.50
2023-02-23T09:43:13.657Z,31.90
2023-02-23T09:45:47.568Z,31.90
2023-02-23T09:48:22.322Z,31.90
2023-02-23T09:50:55.148Z,31.60
2023-02-23T09:53:40.678Z,31.70
2023-02-23T09:56:22.305Z,31.50
2023-02-23T09:58:51.549Z,31.70
2023-02-23T10:01:50.119Z,31.50
2023-02-23T10:04:25.417Z,31.50
2023-02-23T10:07:05.056Z,31.30
2023-02-23T10:10:00.282Z,31.90
2023-02-23T10:12:43.719Z,31.70
2023-02-23T10:15:35.168Z,31.80
2023-02-23T10:18:23.829Z,31.90
2023-02-23T10:21:04.271Z,31.80
2023-02-23T10:23:41.322Z,31.30
2023-02-23T10:26:18.701Z,31.30
2023-02-23T10:28:49.869Z,31.10
2023-02-23T10:31:34.599Z,31.90
2023-02-23T10:34:12.908Z,31.60
2023-02-23T10:36:52.874Z,32.10
2023-02-23T10:39:21.776Z,31.30
2023-02-23T10:41:51.067Z,31.50
2023-02-23T10:44:25.426Z,31.20
2023-02-23T10:46:59.831Z,30.90
2023-02-23T10:49:41.771Z,30.90
2023-02-23T10:52:14.081Z,30.80
2023-02-23T10:54:47.760Z,30.50
2023-02-23T10:57:30.360Z,30.70
2023-02-23T11:00:33.161Z,30.20
2023-02-23T11:03:19.156Z,30.10
2023-02-23T11:05:53.236Z,30.20
2023-02-23T11:08:33.318Z,30.30
2023-02-23T11:11:07.556Z,30.30
2023-02-23T11:13:44.376Z,31.00
2023-02-23T11:16:17.570Z,31.00
2023-02-23T11:18:55.711Z,30.60
2023-02-23T11:21:33.581Z,30.70
2023-02-23T11:24:16.764Z,30.40
2023-02-23T11:26:48.407Z,30.20
2023-02-23T11:29:28.097Z,30.00
2023-02-23T11:32:00.603Z,29.90
2023-02-23T11:34:35.276Z,30.00
2023-02-23T11:37:08.726Z,30.30
2023-02-23T11:39:38.689Z,30.50
2023-02-23T11:42:20.241Z,30.50
2023-02-23T11:45:03.209Z,30.50
2023-02-23T11:47:35.639Z,30.80
2023-02-23T11:50:06.985Z,30.40
2023-02-23T11:52:36.758Z,30.00
2023-02-23T11:55:09.398Z,30.00
2023-02-23T11:57:38.386Z,30.10
2023-02-23T12:00:15.530Z,30.00
2023-02-23T12:02:55.405Z,29.90
2023-02-23T12:05:28.261Z,30.20
2023-02-23T12:08:08.298Z,30.50
2023-02-23T12:10:44.228Z,30.20
2023-02-23T12:13:28.544Z,30.10
2023-02-23T12:16:04.357Z,30.00
2023-02-23T12:18:49.553Z,30.30
2023-02-23T12:21:34.408Z,30.00
2023-02-23T12:24:19.745Z,30.20
2023-02-23T12:26:57.924Z,30.00
2023-02-23T12:29:36.805Z,30.00
2023-02-23T12:32:15.748Z,30.40
2023-02-23T12:34:54.262Z,30.70
2023-02-23T12:37:39.796Z,30.40
2023-02-23T12:40:19.051Z,30.00
2023-02-23T12:43:00.206Z,30.20
2023-02-23T12:45:40.706Z,30.00
2023-02-23T12:48:26.006Z,29.60
2023-02-23T12:51:01.745Z,30.00
2023-02-23T12:53:39.106Z,30.20
2023-02-23T12:56:42.517Z,31.00
2023-02-23T12:59:41.945Z,31.00
2023-02-23T13:02:22.899Z,30.80
2023-02-23T13:05:22.640Z,30.60
2023-02-23T13:08:13.470Z,30.80
2023-02-23T13:10:52.851Z,30.80
2023-02-23T13:13:35.457Z,30.00
2023-02-23T13:16:18.240Z,30.50
2023-02-23T13:18:52.728Z,30.30
2023-02-23T13:21:31.704Z,31.30
2023-02-23T13:24:11.017Z,30.90
2023-02-23T13:26:50.986Z,31.10
2023-02-23T13:29:35.460Z,30.90
2023-02-23T13:32:11.330Z,30.80
2023-02-23T13:34:47.097Z,31.10
2023-02-23T13:37:22.033Z,31.90
2023-02-23T13:40:06.987Z,31.70
2023-02-23T13:42:56.606Z,31.30
2023-02-23T13:45:42.197Z,31.10
2023-02-23T13:48:37.991Z,30.90
2023-02-23T13:51:22.009Z,31.50
2023-02-23T13:54:07.775Z,32.00
2023-02-23T13:56:48.067Z,31.20
2023-02-23T13:59:21.146Z,31.10
2023-02-23T14:01:53.874Z,31.20
2023-02-23T14:04:26.887Z,31.20
2023-02-23T14:07:02.577Z,31.30
2023-02-23T14:09:36.736Z,31.30
2023-02-23T14:12:19.504Z,31.20
2023-02-23T14:14:48.768Z,31.00
2023-02-23T14:17:58.099Z,30.90
2023-02-23T14:20:55.768Z,31.00
2023-02-23T14:23:36.774Z,30.30
2023-02-23T14:26:36.617Z,30.20
2023-02-23T14:29:26.687Z,30.60
2023-02-23T14:32:25.875Z,30.20
2023-02-23T14:34:59.052Z,30.70
2023-02-23T14:37:33.536Z,30.70
2023-02-23T14:40:13.160Z,30.40
2023-02-23T14:42:47.504Z,30.70
2023-02-23T14:45:27.384Z,30.90
2023-02-23T14:48:02.556Z,30.70
2023-02-23T14:50:36.555Z,30.70
2023-02-23T14:53:14.948Z,30.70
2023-02-23T14:55:45.610Z,30.60
2023-02-23T14:58:25.099Z,30.80
2023-02-23T15:00:54.079Z,30.70
2023-02-23T15:03:23.249Z,30.70
2023-02-23T15:05:58.154Z,31.10
2023-02-23T15:08:29.903Z,30.80
2023-02-23T15:11:05.395Z,31.00
2023-02-23T15:16:10.852Z,31.20
2023-02-23T15:18:44.105Z,30.90
2023-02-23T15:21:19.817Z,31.20
2023-02-23T15:23:52.433Z,31.10
2023-02-23T15:26:32.244Z,31.00
2023-02-23T15:29:14.063Z,31.10
2023-02-23T15:31:52.243Z,30.80
2023-02-23T15:34:23.930Z,31.20
2023-02-23T15:37:00.884Z,31.20
2023-02-23T15:39:41.579Z,31.00
2023-02-23T15:42:18.484Z,31.10
2023-02-23T15:44:55.629Z,31.10
2023-02-23T15:47:29.661Z,31.10
2023-02-23T15:50:21.970Z,31.30
2023-02-23T15:53:03.387Z,31.20
2023-02-23T15:55:38.805Z,31.20
2023-02-23T15:58:19.750Z,31.20
2023-02-23T16:00:56.493Z,31.10
2023-02-23T16:03:33.013Z,31.00
2023-02-23T16:06:07.307Z,31.20
2023-02-23T16:08:37.582Z,31.10
2023-02-23T16:11:14.391Z,31.30
2023-02-23T16:13:45.855Z,31.30
2023-02-23T16:16:20.761Z,31.30
2023-02-23T16:19:01.344Z,31.50
2023-02-23T16:21:32.361Z,31.40
2023-02-23T16:24:11.697Z,31.60
2023-02-23T16:26:50.456Z,31.60
2023-02-23T16:29:28.813Z,31.60
2023-02-23T16:32:02.132Z,31.50
2023-02-23T16:34:35.753Z,32.30
2023-02-23T16:37:18.073Z,31.60
2023-02-23T16:39:48.400Z,31.60
2023-02-23T16:42:25.418Z,31.60
2023-02-23T16:44:54.292Z,31.70
2023-02-23T16:47:37.390Z,31.70
2023-02-23T16:50:20.029Z,31.70
2023-02-23T16:52:53.061Z,31.70
2023-02-23T16:55:27.395Z,31.70
2023-02-23T16:58:00.362Z,31.80
2023-02-23T17:00:32.606Z,31.80
2023-02-23T17:03:06.294Z,31.90
2023-02-23T17:05:35.457Z,31.80
2023-02-23T17:08:05.033Z,31.80
2023-02-23T17:10:36.771Z,31.90
2023-02-23T17:13:09.529Z,31.90
2023-02-23T17:15:42.151Z,32.00
2023-02-23T17:18:11.289Z,32.00
2023-02-23T17:20:40.133Z,32.20
2023-02-23T17:23:09.258Z,32.20
2023-02-23T17:25:39.421Z,32.20
2023-02-23T17:28:08.591Z,32.30
2023-02-23T17:30:39.317Z,32.20
2023-02-23T17:33:08.914Z,32.30
2023-02-23T17:35:37.939Z,32.50
2023-02-23T17:38:09.026Z,32.70
2023-02-23T17:40:39.673Z,32.70
2023-02-23T17:43:09.163Z,33.00
2023-02-23T17:45:37.999Z,33.00
2023-02-23T17:48:07.533Z,33.00
2023-02-23T17:50:36.627Z,33.10
2023-02-23T17:53:05.748Z,33.20
2023-02-23T17:55:34.605Z,33.30
2023-02-23T17:58:05.046Z,33.40
2023-02-23T18:00:37.809Z,34.10
2023-02-23T18:03:06.932Z,33.50
2023-02-23T18:05:35.884Z,33.60
2023-02-23T18:08:04.992Z,33.60
2023-02-23T18:10:36.830Z,33.70
2023-02-23T18:13:07.681Z,33.80
2023-02-23T18:15:36.527Z,33.80
2023-02-23T18:18:05.795Z,34.00
2023-02-23T18:20:34.603Z,34.00
2023-02-23T18:23:03.784Z,33.90
2023-02-23T18:25:38.298Z,33.90
2023-02-23T18:28:09.908Z,33.90
2023-02-23T18:30:38.889Z,34.10
2023-02-23T18:33:09.474Z,33.90
2023-02-23T18:35:41.466Z,34.10
2023-02-23T18:38:14.055Z,34.00
2023-02-23T18:40:43.729Z,34.10
2023-02-23T18:43:15.332Z,34.30
2023-02-23T18:45:44.256Z,34.20
2023-02-23T18:48:14.464Z,34.30
2023-02-23T18:50:43.287Z,34.30
2023-02-23T18:53:12.446Z,34.20
2023-02-23T18:55:41.847Z,34.20
2023-02-23T18:58:10.961Z,34.20
2023-02-23T19:00:42.857Z,34.30
2023-02-23T19:03:13.796Z,34.30
2023-02-23T19:05:50.086Z,34.30
2023-02-23T19:08:19.242Z,34.30
2023-02-23T19:10:48.526Z,34.40
2023-02-23T19:13:22.057Z,34.50
2023-02-23T19:15:53.630Z,34.50
2023-02-23T19:18:23.355Z,34.40
2023-02-23T19:20:55.583Z,34.40
2023-02-23T19:23:24.876Z,34.40
2023-02-23T19:25:53.802Z,34.30
2023-02-23T19:28:22.973Z,34.60
2023-02-23T19:31:03.765Z,34.50
2023-02-23T19:33:33.742Z,34.50
2023-02-23T19:36:07.118Z,34.40
2023-02-23T19:38:36.784Z,34.40
2023-02-23T19:41:07.131Z,34.50
2023-02-23T19:43:36.287Z,34.40
2023-02-23T19:46:08.571Z,34.30
2023-02-23T19:48:38.154Z,34.30
2023-02-23T19:51:10.179Z,34.40
2023-02-23T19:53:39.815Z,34.40
2023-02-23T19:56:13.122Z,34.40
2023-02-23T19:58:44.738Z,34.30
2023-02-23T20:01:18.423Z,34.30
2023-02-23T20:03:55.251Z,34.30
2023-02-23T20:06:27.696Z,34.40
2023-02-23T20:09:00.447Z,34.60
2023-02-23T20:11:31.655Z,34.70
2023-02-23T20:14:03.188Z,34.60
2023-02-23T20:16:34.253Z,34.60
2023-02-23T20:19:06.466Z,34.60
2023-02-23T20:21:36.905Z,34.50
2023-02-23T20:24:06.889Z,34.70
2023-02-23T20:26:38.157Z,34.50
2023-02-23T20:29:11.630Z,34.50
2023-02-23T20:31:51.010Z,34.50
2023-02-23T20:34:24.588Z,34.40
2023-02-23T20:36:54.456Z,34.40
2023-02-23T20:39:24.489Z,34.40
2023-02-23T20:41:53.820Z,34.40
2023-02-23T20:44:25.316Z,34.40
2023-02-23T20:46:55.806Z,34.40
2023-02-23T20:49:25.581Z,34.50
2023-02-23T20:51:55.229Z,34.50
2023-02-23T20:54:24.418Z,34.50
2023-02-23T20:56:58.989Z,34.50
2023-02-23T20:59:30.839Z,34.50
2023-02-23T21:02:04.133Z,34.60
2023-02-23T21:04:35.344Z,34.60
2023-02-23T21:07:07.174Z,34.70
2023-02-23T21:09:36.734Z,34.70
2023-02-23T21:12:05.877Z,34.80
2023-02-23T21:14:35.577Z,34.80
2023-02-23T21:17:06.108Z,34.90
2023-02-23T21:19:36.410Z,34.90
2023-02-23T21:22:05.357Z,34.90
2023-02-23T21:24:34.857Z,34.90
2023-02-23T21:27:05.341Z,34.90
2023-02-23T21:29:34.490Z,35.00
2023-02-23T21:32:03.492Z,35.00
2023-02-23T21:34:34.155Z,35.10
2023-02-23T21:37:03.051Z,35.00
2023-02-23T21:39:32.539Z,35.00
2023-02-23T21:42:01.706Z,35.00
2023-02-23T21:44:30.800Z,35.00
2023-02-23T21:46:59.862Z,34.90
2023-02-23T21:49:28.902Z,35.00
2023-02-23T21:51:59.073Z,35.00
2023-02-23T21:54:28.264Z,35.00
2023-02-23T21:56:57.084Z,35.10
2023-02-23T21:59:26.203Z,35.10
2023-02-23T22:01:55.050Z,35.10
2023-02-23T22:04:24.159Z,35.10
2023-02-23T22:06:53.028Z,35.10
2023-02-23T22:09:23.424Z,35.10
2023-02-23T22:11:52.221Z,35.10
2023-02-23T22:14:22.289Z,35.10
2023-02-23T22:16:51.633Z,35.20
2023-02-23T22:19:21.200Z,35.20
2023-02-23T22:21:50.252Z,35.20
2023-02-23T22:24:20.081Z,35.20
2023-02-23T22:26:54.278Z,35.30
2023-02-23T22:29:25.684Z,35.30
2023-02-23T22:31:54.756Z,35.20
2023-02-23T22:34:24.292Z,35.20
2023-02-23T22:36:53.233Z,35.30
2023-02-23T22:39:22.325Z,35.20
2023-02-23T22:41:52.488Z,35.30
2023-02-23T22:44:22.950Z,35.30
2023-02-23T22:46:53.257Z,35.30
2023-02-23T22:49:22.565Z,35.20
2023-02-23T22:51:51.716Z,35.20
2023-02-23T22:54:23.805Z,35.30
2023-02-23T22:56:54.883Z,35.30
2023-02-23T22:59:23.964Z,35.30
2023-02-23T23:01:56.477Z,35.30
2023-02-23T23:04:27.505Z,35.30
2023-02-23T23:06:56.371Z,35.30
2023-02-23T23:09:25.519Z,35.30
2023-02-23T23:11:56.786Z,35.30
2023-02-23T23:14:26.079Z,35.30
2023-02-23T23:16:54.896Z,35.30
2023-02-23T23:19:24.851Z,35.30
2023-02-23T23:21:56.516Z,35.30
2023-02-23T23:24:26.597Z,35.40
2023-02-23T23:27:00.449Z,35.40
2023-02-23T23:29:30.735Z,35.50
2023-02-23T23:32:01.745Z,35.50
2023-02-23T23:34:33.603Z,35.60
2023-02-23T23:37:03.001Z,35.70
2023-02-23T23:39:32.259Z,35.70
2023-02-23T23:42:02.870Z,35.70
2023-02-23T23:44:33.855Z,35.70
2023-02-23T23:47:05.545Z,35.70
2023-02-23T23:49:39.100Z,35.70
2023-02-23T23:52:09.200Z,35.80
2023-02-23T23:54:41.255Z,35.80
2023-02-23T23:57:11.869Z,35.70
2023-02-23T23:59:46.256Z,35.60
